sensor_id;sensor_type;location;lat;lon;timestamp;P1;durP1;ratioP1;P2;durP2;ratioP2
3267;SDS011;1646;52.450;13.326;2023-11-19T00:03:40;11.40;;;7.43;;
3267;SDS011;1646;52.450;13.326;2023-11-19T00:08:39;11.73;;;7.53;;
3267;SDS011;1646;52.450;13.326;2023-11-19T00:13:37;11.07;;;7.63;;
3267;SDS011;1646;52.450;13.326;2023-11-19T00:18:35;11.87;;;7.30;;
3267;SDS011;1646;52.450;13.326;2023-11-19T00:23:35;11.80;;;7.50;;
3267;SDS011;1646;52.450;13.326;2023-11-19T00:28:33;12.53;;;6.73;;
3267;SDS011;1646;52.450;13.326;2023-11-19T00:33:35;11.37;;;6.37;;
3267;SDS011;1646;52.450;13.326;2023-11-19T00:38:47;12.30;;;6.50;;
3267;SDS011;1646;52.450;13.326;2023-11-19T00:43:45;9.60;;;6.93;;
3267;SDS011;1646;52.450;13.326;2023-11-19T00:48:44;8.27;;;6.27;;
3267;SDS011;1646;52.450;13.326;2023-11-19T00:53:43;13.07;;;6.93;;
3267;SDS011;1646;52.450;13.326;2023-11-19T00:58:43;8.70;;;6.10;;
3267;SDS011;1646;52.450;13.326;2023-11-19T01:03:41;11.93;;;6.33;;
3267;SDS011;1646;52.450;13.326;2023-11-19T01:08:40;13.43;;;7.00;;
3267;SDS011;1646;52.450;13.326;2023-11-19T01:13:40;9.93;;;6.27;;
3267;SDS011;1646;52.450;13.326;2023-11-19T01:18:40;8.60;;;6.00;;
3267;SDS011;1646;52.450;13.326;2023-11-19T01:23:39;10.80;;;6.80;;
3267;SDS011;1646;52.450;13.326;2023-11-19T01:28:39;10.43;;;6.07;;
3267;SDS011;1646;52.450;13.326;2023-11-19T01:33:44;11.30;;;5.73;;
3267;SDS011;1646;52.450;13.326;2023-11-19T01:38:43;11.57;;;6.70;;
3267;SDS011;1646;52.450;13.326;2023-11-19T01:43:41;8.23;;;5.93;;
3267;SDS011;1646;52.450;13.326;2023-11-19T01:48:41;10.13;;;6.10;;
3267;SDS011;1646;52.450;13.326;2023-11-19T01:53:43;9.10;;;6.20;;
3267;SDS011;1646;52.450;13.326;2023-11-19T01:58:42;11.77;;;6.00;;
3267;SDS011;1646;52.450;13.326;2023-11-19T02:03:42;10.53;;;6.00;;
3267;SDS011;1646;52.450;13.326;2023-11-19T02:08:41;8.60;;;5.97;;
3267;SDS011;1646;52.450;13.326;2023-11-19T02:13:41;9.10;;;6.30;;
3267;SDS011;1646;52.450;13.326;2023-11-19T02:18:41;12.47;;;6.23;;
3267;SDS011;1646;52.450;13.326;2023-11-19T02:23:39;9.40;;;5.70;;
3267;SDS011;1646;52.450;13.326;2023-11-19T02:28:39;15.10;;;5.30;;
3267;SDS011;1646;52.450;13.326;2023-11-19T02:33:39;9.73;;;5.23;;
3267;SDS011;1646;52.450;13.326;2023-11-19T02:38:38;8.17;;;5.30;;
3267;SDS011;1646;52.450;13.326;2023-11-19T02:43:36;6.77;;;4.70;;
3267;SDS011;1646;52.450;13.326;2023-11-19T02:48:36;7.23;;;5.20;;
3267;SDS011;1646;52.450;13.326;2023-11-19T02:53:35;12.17;;;4.00;;
3267;SDS011;1646;52.450;13.326;2023-11-19T02:58:37;13.27;;;5.07;;
3267;SDS011;1646;52.450;13.326;2023-11-19T03:03:37;7.90;;;4.77;;
3267;SDS011;1646;52.450;13.326;2023-11-19T03:08:37;5.67;;;4.00;;
3267;SDS011;1646;52.450;13.326;2023-11-19T03:13:35;6.93;;;4.40;;
3267;SDS011;1646;52.450;13.326;2023-11-19T03:18:34;6.33;;;4.43;;
3267;SDS011;1646;52.450;13.326;2023-11-19T03:23:33;6.77;;;3.70;;
3267;SDS011;1646;52.450;13.326;2023-11-19T03:28:32;5.50;;;3.97;;
3267;SDS011;1646;52.450;13.326;2023-11-19T03:33:30;9.90;;;4.90;;
3267;SDS011;1646;52.450;13.326;2023-11-19T03:38:29;8.47;;;5.30;;
3267;SDS011;1646;52.450;13.326;2023-11-19T03:43:29;7.40;;;4.93;;
3267;SDS011;1646;52.450;13.326;2023-11-19T03:48:30;10.60;;;5.67;;
3267;SDS011;1646;52.450;13.326;2023-11-19T03:53:28;7.47;;;5.00;;
3267;SDS011;1646;52.450;13.326;2023-11-19T03:58:29;8.10;;;5.50;;
3267;SDS011;1646;52.450;13.326;2023-11-19T04:03:28;9.57;;;6.37;;
3267;SDS011;1646;52.450;13.326;2023-11-19T04:08:26;8.63;;;5.97;;
3267;SDS011;1646;52.450;13.326;2023-11-19T04:13:24;10.13;;;7.13;;
3267;SDS011;1646;52.450;13.326;2023-11-19T04:18:24;9.50;;;5.60;;
3267;SDS011;1646;52.450;13.326;2023-11-19T04:23:22;9.50;;;6.10;;
3267;SDS011;1646;52.450;13.326;2023-11-19T04:28:22;9.33;;;6.70;;
3267;SDS011;1646;52.450;13.326;2023-11-19T04:33:24;10.07;;;6.50;;
3267;SDS011;1646;52.450;13.326;2023-11-19T04:38:23;10.87;;;7.30;;
3267;SDS011;1646;52.450;13.326;2023-11-19T04:43:23;15.00;;;7.80;;
3267;SDS011;1646;52.450;13.326;2023-11-19T04:48:21;10.87;;;7.40;;
3267;SDS011;1646;52.450;13.326;2023-11-19T04:53:21;10.73;;;6.80;;
3267;SDS011;1646;52.450;13.326;2023-11-19T04:58:19;14.90;;;8.03;;
3267;SDS011;1646;52.450;13.326;2023-11-19T05:03:17;11.47;;;6.93;;
3267;SDS011;1646;52.450;13.326;2023-11-19T05:08:16;14.43;;;8.10;;
3267;SDS011;1646;52.450;13.326;2023-11-19T05:13:16;12.47;;;7.40;;
3267;SDS011;1646;52.450;13.326;2023-11-19T05:18:14;14.60;;;7.37;;
3267;SDS011;1646;52.450;13.326;2023-11-19T05:23:13;12.37;;;7.77;;
3267;SDS011;1646;52.450;13.326;2023-11-19T05:28:15;12.23;;;7.40;;
3267;SDS011;1646;52.450;13.326;2023-11-19T05:33:13;11.20;;;7.60;;
3267;SDS011;1646;52.450;13.326;2023-11-19T05:38:12;11.43;;;7.10;;
3267;SDS011;1646;52.450;13.326;2023-11-19T05:43:11;11.33;;;7.07;;
3267;SDS011;1646;52.450;13.326;2023-11-19T05:48:10;11.30;;;7.27;;
3267;SDS011;1646;52.450;13.326;2023-11-19T05:53:09;10.30;;;6.20;;
3267;SDS011;1646;52.450;13.326;2023-11-19T05:58:09;11.87;;;7.57;;
3267;SDS011;1646;52.450;13.326;2023-11-19T06:03:08;10.00;;;6.60;;
3267;SDS011;1646;52.450;13.326;2023-11-19T06:08:08;11.37;;;7.30;;
3267;SDS011;1646;52.450;13.326;2023-11-19T06:13:06;10.53;;;7.30;;
3267;SDS011;1646;52.450;13.326;2023-11-19T06:18:06;12.47;;;7.47;;
3267;SDS011;1646;52.450;13.326;2023-11-19T06:23:06;10.30;;;7.63;;
3267;SDS011;1646;52.450;13.326;2023-11-19T06:28:05;10.03;;;6.07;;
3267;SDS011;1646;52.450;13.326;2023-11-19T06:33:03;8.17;;;5.83;;
3267;SDS011;1646;52.450;13.326;2023-11-19T06:38:02;9.40;;;6.70;;
3267;SDS011;1646;52.450;13.326;2023-11-19T06:43:02;9.30;;;6.90;;
3267;SDS011;1646;52.450;13.326;2023-11-19T06:48:01;9.93;;;6.77;;
3267;SDS011;1646;52.450;13.326;2023-11-19T06:53:01;11.83;;;8.10;;
3267;SDS011;1646;52.450;13.326;2023-11-19T06:57:59;10.60;;;7.30;;
3267;SDS011;1646;52.450;13.326;2023-11-19T07:02:59;9.80;;;6.73;;
3267;SDS011;1646;52.450;13.326;2023-11-19T07:07:58;8.87;;;6.60;;
3267;SDS011;1646;52.450;13.326;2023-11-19T07:12:57;9.20;;;6.33;;
3267;SDS011;1646;52.450;13.326;2023-11-19T07:17:57;10.90;;;7.40;;
3267;SDS011;1646;52.450;13.326;2023-11-19T07:22:58;10.50;;;6.60;;
3267;SDS011;1646;52.450;13.326;2023-11-19T07:27:57;11.70;;;7.47;;
3267;SDS011;1646;52.450;13.326;2023-11-19T07:32:56;8.00;;;6.50;;
3267;SDS011;1646;52.450;13.326;2023-11-19T07:37:55;13.97;;;7.10;;
3267;SDS011;1646;52.450;13.326;2023-11-19T07:42:54;9.13;;;6.33;;
3267;SDS011;1646;52.450;13.326;2023-11-19T07:47:52;7.90;;;5.97;;
3267;SDS011;1646;52.450;13.326;2023-11-19T07:52:52;8.80;;;6.63;;
3267;SDS011;1646;52.450;13.326;2023-11-19T07:57:51;9.50;;;5.83;;
3267;SDS011;1646;52.450;13.326;2023-11-19T08:02:49;10.50;;;6.40;;
3267;SDS011;1646;52.450;13.326;2023-11-19T08:07:47;6.60;;;5.33;;
3267;SDS011;1646;52.450;13.326;2023-11-19T08:12:47;8.93;;;6.97;;
3267;SDS011;1646;52.450;13.326;2023-11-19T08:17:46;7.63;;;6.03;;
3267;SDS011;1646;52.450;13.326;2023-11-19T08:22:44;8.50;;;5.80;;
3267;SDS011;1646;52.450;13.326;2023-11-19T08:27:43;8.40;;;6.43;;
3267;SDS011;1646;52.450;13.326;2023-11-19T08:32:42;6.47;;;5.53;;
3267;SDS011;1646;52.450;13.326;2023-11-19T08:37:41;9.80;;;7.03;;
3267;SDS011;1646;52.450;13.326;2023-11-19T08:42:39;10.50;;;6.87;;
3267;SDS011;1646;52.450;13.326;2023-11-19T08:47:37;8.50;;;4.93;;
3267;SDS011;1646;52.450;13.326;2023-11-19T08:52:38;5.20;;;4.50;;
3267;SDS011;1646;52.450;13.326;2023-11-19T08:57:36;8.90;;;5.43;;
3267;SDS011;1646;52.450;13.326;2023-11-19T09:02:35;4.90;;;4.03;;
3267;SDS011;1646;52.450;13.326;2023-11-19T09:07:34;5.27;;;4.77;;
3267;SDS011;1646;52.450;13.326;2023-11-19T09:12:34;5.23;;;4.77;;
3267;SDS011;1646;52.450;13.326;2023-11-19T09:17:32;5.00;;;4.50;;
3267;SDS011;1646;52.450;13.326;2023-11-19T09:22:31;4.23;;;3.90;;
3267;SDS011;1646;52.450;13.326;2023-11-19T09:27:30;3.37;;;3.07;;
3267;SDS011;1646;52.450;13.326;2023-11-19T09:32:29;3.27;;;2.97;;
3267;SDS011;1646;52.450;13.326;2023-11-19T09:37:28;3.77;;;3.27;;
3267;SDS011;1646;52.450;13.326;2023-11-19T09:42:26;7.90;;;4.33;;
3267;SDS011;1646;52.450;13.326;2023-11-19T09:47:24;5.83;;;3.60;;
3267;SDS011;1646;52.450;13.326;2023-11-19T09:52:27;5.57;;;3.43;;
3267;SDS011;1646;52.450;13.326;2023-11-19T09:57:26;4.73;;;2.30;;
3267;SDS011;1646;52.450;13.326;2023-11-19T10:02:25;5.70;;;2.63;;
3267;SDS011;1646;52.450;13.326;2023-11-19T10:07:28;2.53;;;1.97;;
3267;SDS011;1646;52.450;13.326;2023-11-19T10:12:26;3.93;;;2.23;;
3267;SDS011;1646;52.450;13.326;2023-11-19T10:17:27;7.07;;;2.10;;
3267;SDS011;1646;52.450;13.326;2023-11-19T10:22:28;8.40;;;1.77;;
3267;SDS011;1646;52.450;13.326;2023-11-19T10:27:26;1.77;;;1.50;;
3267;SDS011;1646;52.450;13.326;2023-11-19T10:32:24;2.13;;;1.60;;
3267;SDS011;1646;52.450;13.326;2023-11-19T10:37:31;3.67;;;1.87;;
3267;SDS011;1646;52.450;13.326;2023-11-19T10:42:32;12.17;;;2.27;;
3267;SDS011;1646;52.450;13.326;2023-11-19T10:47:30;6.73;;;2.17;;
3267;SDS011;1646;52.450;13.326;2023-11-19T10:52:35;7.60;;;2.10;;
3267;SDS011;1646;52.450;13.326;2023-11-19T10:57:36;11.10;;;2.33;;
3267;SDS011;1646;52.450;13.326;2023-11-19T11:02:37;7.50;;;2.47;;
3267;SDS011;1646;52.450;13.326;2023-11-19T11:07:40;6.70;;;2.17;;
3267;SDS011;1646;52.450;13.326;2023-11-19T11:12:41;7.87;;;3.00;;
3267;SDS011;1646;52.450;13.326;2023-11-19T11:17:43;11.93;;;3.10;;
3267;SDS011;1646;52.450;13.326;2023-11-19T11:22:44;10.00;;;2.70;;
3267;SDS011;1646;52.450;13.326;2023-11-19T11:27:56;6.10;;;3.00;;
3267;SDS011;1646;52.450;13.326;2023-11-19T11:33:06;7.87;;;2.53;;
3267;SDS011;1646;52.450;13.326;2023-11-19T11:38:17;12.50;;;2.93;;
3267;SDS011;1646;52.450;13.326;2023-11-19T11:48:43;14.03;;;4.10;;
3267;SDS011;1646;52.450;13.326;2023-11-19T11:53:46;15.30;;;3.40;;
3267;SDS011;1646;52.450;13.326;2023-11-19T11:58:45;13.20;;;3.30;;
3267;SDS011;1646;52.450;13.326;2023-11-19T12:03:44;18.33;;;3.50;;
3267;SDS011;1646;52.450;13.326;2023-11-19T12:08:43;15.67;;;3.00;;
3267;SDS011;1646;52.450;13.326;2023-11-19T12:13:54;14.60;;;3.97;;
3267;SDS011;1646;52.450;13.326;2023-11-19T12:18:55;11.73;;;4.27;;
3267;SDS011;1646;52.450;13.326;2023-11-19T12:23:54;17.60;;;4.10;;
3267;SDS011;1646;52.450;13.326;2023-11-19T12:28:58;8.77;;;3.60;;
3267;SDS011;1646;52.450;13.326;2023-11-19T12:33:59;18.67;;;3.90;;
3267;SDS011;1646;52.450;13.326;2023-11-19T12:38:57;14.50;;;3.93;;
3267;SDS011;1646;52.450;13.326;2023-11-19T12:44:10;17.97;;;4.43;;
3267;SDS011;1646;52.450;13.326;2023-11-19T12:49:08;14.97;;;3.77;;
3267;SDS011;1646;52.450;13.326;2023-11-19T12:54:09;17.57;;;4.50;;
3267;SDS011;1646;52.450;13.326;2023-11-19T12:59:13;25.17;;;5.50;;
3267;SDS011;1646;52.450;13.326;2023-11-19T13:04:17;22.30;;;4.10;;
3267;SDS011;1646;52.450;13.326;2023-11-19T13:09:22;18.97;;;3.90;;
3267;SDS011;1646;52.450;13.326;2023-11-19T13:14:23;11.83;;;4.10;;
3267;SDS011;1646;52.450;13.326;2023-11-19T13:19:33;25.53;;;5.03;;
3267;SDS011;1646;52.450;13.326;2023-11-19T13:24:31;23.83;;;4.47;;
3267;SDS011;1646;52.450;13.326;2023-11-19T13:29:31;26.37;;;4.50;;
3267;SDS011;1646;52.450;13.326;2023-11-19T13:34:30;15.83;;;4.10;;
3267;SDS011;1646;52.450;13.326;2023-11-19T13:39:29;21.27;;;4.70;;
3267;SDS011;1646;52.450;13.326;2023-11-19T13:44:27;16.70;;;4.40;;
3267;SDS011;1646;52.450;13.326;2023-11-19T13:49:27;19.67;;;4.60;;
3267;SDS011;1646;52.450;13.326;2023-11-19T13:54:25;22.27;;;5.73;;
3267;SDS011;1646;52.450;13.326;2023-11-19T13:59:24;24.60;;;5.03;;
3267;SDS011;1646;52.450;13.326;2023-11-19T14:04:22;15.23;;;4.77;;
3267;SDS011;1646;52.450;13.326;2023-11-19T14:09:22;19.73;;;5.27;;
3267;SDS011;1646;52.450;13.326;2023-11-19T14:14:20;21.47;;;4.63;;
3267;SDS011;1646;52.450;13.326;2023-11-19T14:19:18;17.00;;;5.70;;
3267;SDS011;1646;52.450;13.326;2023-11-19T14:24:16;25.27;;;5.73;;
3267;SDS011;1646;52.450;13.326;2023-11-19T14:29:16;23.67;;;4.57;;
3267;SDS011;1646;52.450;13.326;2023-11-19T14:34:14;29.80;;;5.23;;
3267;SDS011;1646;52.450;13.326;2023-11-19T14:39:13;23.77;;;6.07;;
3267;SDS011;1646;52.450;13.326;2023-11-19T14:44:11;21.67;;;5.77;;
3267;SDS011;1646;52.450;13.326;2023-11-19T14:49:11;23.53;;;5.73;;
3267;SDS011;1646;52.450;13.326;2023-11-19T14:54:10;28.57;;;5.63;;
3267;SDS011;1646;52.450;13.326;2023-11-19T14:59:11;25.53;;;5.90;;
3267;SDS011;1646;52.450;13.326;2023-11-19T15:04:10;23.10;;;5.63;;
3267;SDS011;1646;52.450;13.326;2023-11-19T15:09:09;19.27;;;5.43;;
3267;SDS011;1646;52.450;13.326;2023-11-19T15:14:12;20.87;;;5.00;;
3267;SDS011;1646;52.450;13.326;2023-11-19T15:19:14;26.70;;;5.00;;
3267;SDS011;1646;52.450;13.326;2023-11-19T15:24:12;20.00;;;4.13;;
3267;SDS011;1646;52.450;13.326;2023-11-19T15:29:11;27.17;;;5.73;;
3267;SDS011;1646;52.450;13.326;2023-11-19T15:34:10;24.47;;;7.13;;
3267;SDS011;1646;52.450;13.326;2023-11-19T15:39:10;18.30;;;5.60;;
3267;SDS011;1646;52.450;13.326;2023-11-19T15:44:09;16.50;;;5.73;;
3267;SDS011;1646;52.450;13.326;2023-11-19T15:49:08;21.33;;;5.10;;
3267;SDS011;1646;52.450;13.326;2023-11-19T15:54:06;25.07;;;5.33;;
3267;SDS011;1646;52.450;13.326;2023-11-19T15:59:06;20.60;;;4.97;;
3267;SDS011;1646;52.450;13.326;2023-11-19T16:04:05;14.93;;;4.60;;
3267;SDS011;1646;52.450;13.326;2023-11-19T16:09:06;16.53;;;4.97;;
3267;SDS011;1646;52.450;13.326;2023-11-19T16:14:07;17.50;;;4.90;;
3267;SDS011;1646;52.450;13.326;2023-11-19T16:19:05;21.90;;;5.93;;
3267;SDS011;1646;52.450;13.326;2023-11-19T16:24:04;25.27;;;6.03;;
3267;SDS011;1646;52.450;13.326;2023-11-19T16:29:03;28.23;;;6.20;;
3267;SDS011;1646;52.450;13.326;2023-11-19T16:34:03;26.07;;;6.03;;
3267;SDS011;1646;52.450;13.326;2023-11-19T16:39:02;16.13;;;5.33;;
3267;SDS011;1646;52.450;13.326;2023-11-19T16:44:03;24.40;;;6.60;;
3267;SDS011;1646;52.450;13.326;2023-11-19T16:49:04;18.90;;;6.10;;
3267;SDS011;1646;52.450;13.326;2023-11-19T16:54:03;26.33;;;5.63;;
3267;SDS011;1646;52.450;13.326;2023-11-19T16:59:02;21.10;;;5.73;;
3267;SDS011;1646;52.450;13.326;2023-11-19T17:04:00;26.80;;;6.37;;
3267;SDS011;1646;52.450;13.326;2023-11-19T17:09:00;24.83;;;6.80;;
3267;SDS011;1646;52.450;13.326;2023-11-19T17:13:59;32.90;;;8.03;;
3267;SDS011;1646;52.450;13.326;2023-11-19T17:18:57;20.57;;;6.07;;
3267;SDS011;1646;52.450;13.326;2023-11-19T17:23:55;26.53;;;7.90;;
3267;SDS011;1646;52.450;13.326;2023-11-19T17:28:55;19.80;;;6.73;;
3267;SDS011;1646;52.450;13.326;2023-11-19T17:33:54;21.70;;;8.10;;
3267;SDS011;1646;52.450;13.326;2023-11-19T17:38:54;23.57;;;7.63;;
3267;SDS011;1646;52.450;13.326;2023-11-19T17:43:52;23.63;;;6.37;;
3267;SDS011;1646;52.450;13.326;2023-11-19T17:48:52;24.80;;;7.53;;
3267;SDS011;1646;52.450;13.326;2023-11-19T17:53:50;20.93;;;5.90;;
3267;SDS011;1646;52.450;13.326;2023-11-19T17:58:49;24.70;;;8.00;;
3267;SDS011;1646;52.450;13.326;2023-11-19T18:03:48;27.50;;;8.63;;
3267;SDS011;1646;52.450;13.326;2023-11-19T18:08:48;26.50;;;8.40;;
3267;SDS011;1646;52.450;13.326;2023-11-19T18:13:46;26.60;;;8.60;;
3267;SDS011;1646;52.450;13.326;2023-11-19T18:18:46;17.83;;;6.47;;
3267;SDS011;1646;52.450;13.326;2023-11-19T18:23:44;15.20;;;5.00;;
3267;SDS011;1646;52.450;13.326;2023-11-19T18:28:44;15.33;;;5.30;;
3267;SDS011;1646;52.450;13.326;2023-11-19T18:33:43;16.33;;;4.77;;
3267;SDS011;1646;52.450;13.326;2023-11-19T18:38:41;21.83;;;5.70;;
3267;SDS011;1646;52.450;13.326;2023-11-19T18:43:40;16.53;;;5.33;;
3267;SDS011;1646;52.450;13.326;2023-11-19T18:48:39;19.63;;;5.00;;
3267;SDS011;1646;52.450;13.326;2023-11-19T18:53:37;23.83;;;6.03;;
3267;SDS011;1646;52.450;13.326;2023-11-19T18:58:36;19.83;;;7.30;;
3267;SDS011;1646;52.450;13.326;2023-11-19T19:03:34;20.03;;;6.60;;
3267;SDS011;1646;52.450;13.326;2023-11-19T19:08:34;25.23;;;7.33;;
3267;SDS011;1646;52.450;13.326;2023-11-19T19:13:32;18.33;;;7.23;;
3267;SDS011;1646;52.450;13.326;2023-11-19T19:18:31;25.27;;;7.80;;
3267;SDS011;1646;52.450;13.326;2023-11-19T19:23:30;20.17;;;7.17;;
3267;SDS011;1646;52.450;13.326;2023-11-19T19:28:30;23.50;;;6.37;;
3267;SDS011;1646;52.450;13.326;2023-11-19T19:33:33;25.67;;;5.23;;
3267;SDS011;1646;52.450;13.326;2023-11-19T19:38:32;20.67;;;5.73;;
3267;SDS011;1646;52.450;13.326;2023-11-19T19:43:31;17.77;;;6.07;;
3267;SDS011;1646;52.450;13.326;2023-11-19T19:48:30;15.97;;;5.43;;
3267;SDS011;1646;52.450;13.326;2023-11-19T19:53:28;21.30;;;6.30;;
3267;SDS011;1646;52.450;13.326;2023-11-19T19:58:26;21.83;;;6.50;;
3267;SDS011;1646;52.450;13.326;2023-11-19T20:03:26;22.03;;;5.20;;
3267;SDS011;1646;52.450;13.326;2023-11-19T20:08:25;15.90;;;4.53;;
3267;SDS011;1646;52.450;13.326;2023-11-19T20:13:24;18.13;;;4.37;;
3267;SDS011;1646;52.450;13.326;2023-11-19T20:18:24;16.43;;;4.60;;
3267;SDS011;1646;52.450;13.326;2023-11-19T20:23:27;12.00;;;4.20;;
3267;SDS011;1646;52.450;13.326;2023-11-19T20:28:25;14.87;;;4.17;;
3267;SDS011;1646;52.450;13.326;2023-11-19T20:33:23;17.43;;;4.37;;
3267;SDS011;1646;52.450;13.326;2023-11-19T20:38:22;14.80;;;4.80;;
3267;SDS011;1646;52.450;13.326;2023-11-19T20:43:22;19.30;;;4.43;;
3267;SDS011;1646;52.450;13.326;2023-11-19T20:48:20;7.70;;;4.13;;
3267;SDS011;1646;52.450;13.326;2023-11-19T20:53:19;18.83;;;5.03;;
3267;SDS011;1646;52.450;13.326;2023-11-19T20:58:17;17.70;;;4.93;;
3267;SDS011;1646;52.450;13.326;2023-11-19T21:03:17;17.97;;;3.77;;
3267;SDS011;1646;52.450;13.326;2023-11-19T21:08:15;20.60;;;5.43;;
3267;SDS011;1646;52.450;13.326;2023-11-19T21:13:14;15.07;;;4.60;;
3267;SDS011;1646;52.450;13.326;2023-11-19T21:18:13;9.93;;;4.43;;
3267;SDS011;1646;52.450;13.326;2023-11-19T21:23:12;13.50;;;4.47;;
3267;SDS011;1646;52.450;13.326;2023-11-19T21:28:11;21.30;;;5.20;;
3267;SDS011;1646;52.450;13.326;2023-11-19T21:33:10;15.07;;;5.00;;
3267;SDS011;1646;52.450;13.326;2023-11-19T21:38:08;19.30;;;5.30;;
3267;SDS011;1646;52.450;13.326;2023-11-19T21:43:08;15.10;;;4.70;;
3267;SDS011;1646;52.450;13.326;2023-11-19T21:48:07;10.50;;;4.20;;
3267;SDS011;1646;52.450;13.326;2023-11-19T21:53:05;17.73;;;4.80;;
3267;SDS011;1646;52.450;13.326;2023-11-19T21:58:03;14.70;;;4.80;;
3267;SDS011;1646;52.450;13.326;2023-11-19T22:03:03;13.50;;;4.33;;
3267;SDS011;1646;52.450;13.326;2023-11-19T22:08:02;10.53;;;4.83;;
3267;SDS011;1646;52.450;13.326;2023-11-19T22:13:03;17.47;;;4.47;;
3267;SDS011;1646;52.450;13.326;2023-11-19T22:18:01;11.27;;;4.00;;
3267;SDS011;1646;52.450;13.326;2023-11-19T22:23:01;15.57;;;3.57;;
3267;SDS011;1646;52.450;13.326;2023-11-19T22:28:00;13.13;;;4.90;;
3267;SDS011;1646;52.450;13.326;2023-11-19T22:32:59;14.30;;;4.07;;
3267;SDS011;1646;52.450;13.326;2023-11-19T22:37:58;12.27;;;3.53;;
3267;SDS011;1646;52.450;13.326;2023-11-19T22:42:57;11.53;;;4.23;;
3267;SDS011;1646;52.450;13.326;2023-11-19T22:47:55;22.43;;;4.20;;
3267;SDS011;1646;52.450;13.326;2023-11-19T22:52:54;10.60;;;4.10;;
3267;SDS011;1646;52.450;13.326;2023-11-19T22:57:54;17.50;;;4.27;;
3267;SDS011;1646;52.450;13.326;2023-11-19T23:02:56;12.73;;;3.80;;
3267;SDS011;1646;52.450;13.326;2023-11-19T23:07:56;12.50;;;3.13;;
3267;SDS011;1646;52.450;13.326;2023-11-19T23:12:58;12.33;;;3.37;;
3267;SDS011;1646;52.450;13.326;2023-11-19T23:17:56;17.03;;;4.50;;
3267;SDS011;1646;52.450;13.326;2023-11-19T23:22:56;15.23;;;4.57;;
3267;SDS011;1646;52.450;13.326;2023-11-19T23:27:55;11.90;;;3.33;;
3267;SDS011;1646;52.450;13.326;2023-11-19T23:32:54;10.87;;;4.20;;
3267;SDS011;1646;52.450;13.326;2023-11-19T23:37:53;10.10;;;3.40;;
3267;SDS011;1646;52.450;13.326;2023-11-19T23:42:51;7.27;;;3.23;;
3267;SDS011;1646;52.450;13.326;2023-11-19T23:47:50;10.80;;;3.80;;
3267;SDS011;1646;52.450;13.326;2023-11-19T23:52:50;13.00;;;4.03;;
3267;SDS011;1646;52.450;13.326;2023-11-19T23:57:49;6.00;;;3.30;;
